sensor_id;sensor_type;location;lat;lon;timestamp;temperature;humidity
36292;DHT22;22327;51.208;6.418;2023-08-07T00:02:51;16.60;99.90
36292;DHT22;22327;51.208;6.418;2023-08-07T00:05:52;16.60;99.90
36292;DHT22;22327;51.208;6.418;2023-08-07T00:08:52;16.60;99.90
36292;DHT22;22327;51.208;6.418;2023-08-07T00:11:53;16.60;99.90
36292;DHT22;22327;51.208;6.418;2023-08-07T00:14:53;16.60;99.90
36292;DHT22;22327;51.208;6.418;2023-08-07T00:17:54;16.60;99.90
36292;DHT22;22327;51.208;6.418;2023-08-07T00:20:54;16.60;99.90
36292;DHT22;22327;51.208;6.418;2023-08-07T00:23:55;16.60;99.90
36292;DHT22;22327;51.208;6.418;2023-08-07T00:26:55;16.60;99.90
36292;DHT22;22327;51.208;6.418;2023-08-07T00:29:56;16.70;99.90
36292;DHT22;22327;51.208;6.418;2023-08-07T00:32:56;16.70;99.90
36292;DHT22;22327;51.208;6.418;2023-08-07T00:35:57;16.60;99.90
36292;DHT22;22327;51.208;6.418;2023-08-07T00:38:58;16.60;99.90
36292;DHT22;22327;51.208;6.418;2023-08-07T00:41:58;16.60;99.90
36292;DHT22;22327;51.208;6.418;2023-08-07T00:44:59;16.60;99.90
36292;DHT22;22327;51.208;6.418;2023-08-07T00:48:01;16.60;99.90
36292;DHT22;22327;51.208;6.418;2023-08-07T00:51:03;16.60;99.90
36292;DHT22;22327;51.208;6.418;2023-08-07T00:54:05;16.70;99.90
36292;DHT22;22327;51.208;6.418;2023-08-07T00:57:12;16.70;99.90
36292;DHT22;22327;51.208;6.418;2023-08-07T01:00:13;16.70;99.90
36292;DHT22;22327;51.208;6.418;2023-08-07T01:03:15;16.70;99.90
36292;DHT22;22327;51.208;6.418;2023-08-07T01:06:15;16.70;99.90
36292;DHT22;22327;51.208;6.418;2023-08-07T01:09:16;16.70;99.90
36292;DHT22;22327;51.208;6.418;2023-08-07T01:12:24;16.60;99.90
36292;DHT22;22327;51.208;6.418;2023-08-07T01:15:30;16.70;99.90
36292;DHT22;22327;51.208;6.418;2023-08-07T01:18:34;16.70;99.90
36292;DHT22;22327;51.208;6.418;2023-08-07T01:21:36;16.80;99.90
36292;DHT22;22327;51.208;6.418;2023-08-07T01:24:39;16.80;99.90
36292;DHT22;22327;51.208;6.418;2023-08-07T01:27:55;16.70;99.90
36292;DHT22;22327;51.208;6.418;2023-08-07T01:31:04;16.70;99.90
36292;DHT22;22327;51.208;6.418;2023-08-07T01:34:07;16.60;99.90
36292;DHT22;22327;51.208;6.418;2023-08-07T01:37:10;16.50;99.90
36292;DHT22;22327;51.208;6.418;2023-08-07T01:40:13;16.50;99.90
36292;DHT22;22327;51.208;6.418;2023-08-07T01:43:14;16.50;99.90
36292;DHT22;22327;51.208;6.418;2023-08-07T01:46:14;16.50;99.90
36292;DHT22;22327;51.208;6.418;2023-08-07T01:49:15;16.40;99.90
36292;DHT22;22327;51.208;6.418;2023-08-07T01:52:15;16.40;99.90
36292;DHT22;22327;51.208;6.418;2023-08-07T01:55:17;16.40;99.90
36292;DHT22;22327;51.208;6.418;2023-08-07T01:58:18;16.40;99.90
36292;DHT22;22327;51.208;6.418;2023-08-07T02:01:18;16.40;99.90
36292;DHT22;22327;51.208;6.418;2023-08-07T02:04:19;16.40;99.90
36292;DHT22;22327;51.208;6.418;2023-08-07T02:07:19;16.40;99.90
36292;DHT22;22327;51.208;6.418;2023-08-07T02:10:20;16.40;99.90
36292;DHT22;22327;51.208;6.418;2023-08-07T02:13:20;16.30;99.90
36292;DHT22;22327;51.208;6.418;2023-08-07T02:16:21;16.30;99.90
36292;DHT22;22327;51.208;6.418;2023-08-07T02:19:21;16.40;99.90
36292;DHT22;22327;51.208;6.418;2023-08-07T02:22:22;16.30;99.90
36292;DHT22;22327;51.208;6.418;2023-08-07T02:25:22;16.40;99.90
36292;DHT22;22327;51.208;6.418;2023-08-07T02:28:23;16.40;99.90
36292;DHT22;22327;51.208;6.418;2023-08-07T02:31:23;16.30;99.90
36292;DHT22;22327;51.208;6.418;2023-08-07T02:34:24;16.30;99.90
36292;DHT22;22327;51.208;6.418;2023-08-07T02:37:24;16.30;99.90
36292;DHT22;22327;51.208;6.418;2023-08-07T02:40:25;16.40;99.90
36292;DHT22;22327;51.208;6.418;2023-08-07T02:43:25;16.40;99.90
36292;DHT22;22327;51.208;6.418;2023-08-07T02:46:27;16.40;99.90
36292;DHT22;22327;51.208;6.418;2023-08-07T02:49:27;16.40;99.90
36292;DHT22;22327;51.208;6.418;2023-08-07T02:52:29;16.40;99.90
36292;DHT22;22327;51.208;6.418;2023-08-07T02:55:29;16.40;99.90
36292;DHT22;22327;51.208;6.418;2023-08-07T02:58:30;16.40;99.90
36292;DHT22;22327;51.208;6.418;2023-08-07T03:01:30;16.40;99.90
36292;DHT22;22327;51.208;6.418;2023-08-07T03:04:31;16.30;99.90
36292;DHT22;22327;51.208;6.418;2023-08-07T03:07:31;16.30;99.90
36292;DHT22;22327;51.208;6.418;2023-08-07T03:10:32;16.30;99.90
36292;DHT22;22327;51.208;6.418;2023-08-07T03:13:32;16.30;99.90
36292;DHT22;22327;51.208;6.418;2023-08-07T03:16:33;16.30;99.90
36292;DHT22;22327;51.208;6.418;2023-08-07T03:19:33;16.30;99.90
36292;DHT22;22327;51.208;6.418;2023-08-07T03:22:34;16.40;99.90
36292;DHT22;22327;51.208;6.418;2023-08-07T03:25:34;16.40;99.90
36292;DHT22;22327;51.208;6.418;2023-08-07T03:28:35;16.50;99.90
36292;DHT22;22327;51.208;6.418;2023-08-07T03:31:36;16.50;99.90
36292;DHT22;22327;51.208;6.418;2023-08-07T03:34:36;16.50;99.90
36292;DHT22;22327;51.208;6.418;2023-08-07T03:37:37;16.50;99.90
36292;DHT22;22327;51.208;6.418;2023-08-07T03:40:37;16.50;99.90
36292;DHT22;22327;51.208;6.418;2023-08-07T03:43:38;16.60;99.90
36292;DHT22;22327;51.208;6.418;2023-08-07T03:46:39;16.60;99.90
36292;DHT22;22327;51.208;6.418;2023-08-07T03:49:39;16.50;99.90
36292;DHT22;22327;51.208;6.418;2023-08-07T03:52:40;16.50;99.90
36292;DHT22;22327;51.208;6.418;2023-08-07T03:55:40;16.50;99.90
36292;DHT22;22327;51.208;6.418;2023-08-07T03:58:42;16.50;99.90
36292;DHT22;22327;51.208;6.418;2023-08-07T04:01:43;16.50;99.90
36292;DHT22;22327;51.208;6.418;2023-08-07T04:04:43;16.50;99.90
36292;DHT22;22327;51.208;6.418;2023-08-07T04:07:44;16.50;99.90
36292;DHT22;22327;51.208;6.418;2023-08-07T04:10:44;16.50;99.90
36292;DHT22;22327;51.208;6.418;2023-08-07T04:13:45;16.50;99.90
36292;DHT22;22327;51.208;6.418;2023-08-07T04:16:45;16.50;99.90
36292;DHT22;22327;51.208;6.418;2023-08-07T04:20:12;16.50;99.90
36292;DHT22;22327;51.208;6.418;2023-08-07T04:23:12;16.60;99.90
36292;DHT22;22327;51.208;6.418;2023-08-07T04:26:13;16.60;99.90
36292;DHT22;22327;51.208;6.418;2023-08-07T04:29:14;16.60;99.90
36292;DHT22;22327;51.208;6.418;2023-08-07T04:32:15;16.60;99.90
36292;DHT22;22327;51.208;6.418;2023-08-07T04:35:15;16.60;99.90
36292;DHT22;22327;51.208;6.418;2023-08-07T04:38:16;16.60;99.90
36292;DHT22;22327;51.208;6.418;2023-08-07T04:41:17;16.60;99.90
36292;DHT22;22327;51.208;6.418;2023-08-07T04:44:18;16.60;99.90
36292;DHT22;22327;51.208;6.418;2023-08-07T04:47:18;16.60;99.90
36292;DHT22;22327;51.208;6.418;2023-08-07T04:50:19;16.50;99.90
36292;DHT22;22327;51.208;6.418;2023-08-07T04:53:19;16.50;99.90
36292;DHT22;22327;51.208;6.418;2023-08-07T04:56:20;16.40;99.90
36292;DHT22;22327;51.208;6.418;2023-08-07T04:59:20;16.40;99.90
36292;DHT22;22327;51.208;6.418;2023-08-07T05:02:21;16.40;99.90
36292;DHT22;22327;51.208;6.418;2023-08-07T05:05:21;16.40;99.90
36292;DHT22;22327;51.208;6.418;2023-08-07T05:08:22;16.40;99.90
36292;DHT22;22327;51.208;6.418;2023-08-07T05:11:22;16.40;99.90
36292;DHT22;22327;51.208;6.418;2023-08-07T05:14:23;16.30;99.90
36292;DHT22;22327;51.208;6.418;2023-08-07T05:17:23;16.30;99.90
36292;DHT22;22327;51.208;6.418;2023-08-07T05:20:24;16.30;99.90
36292;DHT22;22327;51.208;6.418;2023-08-07T05:23:24;16.30;99.90
36292;DHT22;22327;51.208;6.418;2023-08-07T05:26:25;16.30;99.90
36292;DHT22;22327;51.208;6.418;2023-08-07T05:29:25;16.30;99.90
36292;DHT22;22327;51.208;6.418;2023-08-07T05:32:26;16.30;99.90
36292;DHT22;22327;51.208;6.418;2023-08-07T05:35:27;16.30;99.90
36292;DHT22;22327;51.208;6.418;2023-08-07T05:38:27;16.30;99.90
36292;DHT22;22327;51.208;6.418;2023-08-07T05:41:28;16.30;99.90
36292;DHT22;22327;51.208;6.418;2023-08-07T05:44:29;16.20;99.90
36292;DHT22;22327;51.208;6.418;2023-08-07T05:47:30;16.20;99.90
36292;DHT22;22327;51.208;6.418;2023-08-07T05:50:30;16.10;99.90
36292;DHT22;22327;51.208;6.418;2023-08-07T05:53:31;16.00;99.90
36292;DHT22;22327;51.208;6.418;2023-08-07T05:56:31;16.00;99.90
36292;DHT22;22327;51.208;6.418;2023-08-07T05:59:32;15.90;99.90
36292;DHT22;22327;51.208;6.418;2023-08-07T06:02:34;15.90;99.90
36292;DHT22;22327;51.208;6.418;2023-08-07T06:05:35;15.90;99.90
36292;DHT22;22327;51.208;6.418;2023-08-07T06:08:35;15.90;99.90
36292;DHT22;22327;51.208;6.418;2023-08-07T06:11:36;15.80;99.90
36292;DHT22;22327;51.208;6.418;2023-08-07T06:14:37;15.80;99.90
36292;DHT22;22327;51.208;6.418;2023-08-07T06:17:38;15.80;99.90
36292;DHT22;22327;51.208;6.418;2023-08-07T06:20:39;15.80;99.90
36292;DHT22;22327;51.208;6.418;2023-08-07T06:23:40;15.80;99.90
36292;DHT22;22327;51.208;6.418;2023-08-07T06:26:40;15.80;99.90
36292;DHT22;22327;51.208;6.418;2023-08-07T06:29:41;15.90;99.90
36292;DHT22;22327;51.208;6.418;2023-08-07T06:32:42;15.80;99.90
36292;DHT22;22327;51.208;6.418;2023-08-07T06:35:42;15.80;99.90
36292;DHT22;22327;51.208;6.418;2023-08-07T06:38:43;15.80;99.90
36292;DHT22;22327;51.208;6.418;2023-08-07T06:41:43;15.80;99.90
36292;DHT22;22327;51.208;6.418;2023-08-07T06:44:44;15.80;99.90
36292;DHT22;22327;51.208;6.418;2023-08-07T06:47:44;15.90;99.90
36292;DHT22;22327;51.208;6.418;2023-08-07T06:50:49;15.80;99.90
36292;DHT22;22327;51.208;6.418;2023-08-07T06:53:49;15.90;99.90
36292;DHT22;22327;51.208;6.418;2023-08-07T06:56:50;15.80;99.90
36292;DHT22;22327;51.208;6.418;2023-08-07T06:59:50;15.90;99.90
36292;DHT22;22327;51.208;6.418;2023-08-07T07:02:51;15.90;99.90
36292;DHT22;22327;51.208;6.418;2023-08-07T07:05:51;15.90;99.90
36292;DHT22;22327;51.208;6.418;2023-08-07T07:08:53;15.90;99.90
36292;DHT22;22327;51.208;6.418;2023-08-07T07:11:56;15.90;99.90
36292;DHT22;22327;51.208;6.418;2023-08-07T07:14:57;15.80;99.90
36292;DHT22;22327;51.208;6.418;2023-08-07T07:17:57;15.90;99.90
36292;DHT22;22327;51.208;6.418;2023-08-07T07:20:58;15.90;99.90
36292;DHT22;22327;51.208;6.418;2023-08-07T07:23:59;16.10;99.90
36292;DHT22;22327;51.208;6.418;2023-08-07T07:26:59;16.10;99.90
36292;DHT22;22327;51.208;6.418;2023-08-07T07:30:00;16.20;99.90
36292;DHT22;22327;51.208;6.418;2023-08-07T07:33:01;16.20;99.90
36292;DHT22;22327;51.208;6.418;2023-08-07T07:36:01;16.30;99.90
36292;DHT22;22327;51.208;6.418;2023-08-07T07:39:02;16.40;99.90
36292;DHT22;22327;51.208;6.418;2023-08-07T07:42:03;16.40;99.90
36292;DHT22;22327;51.208;6.418;2023-08-07T07:45:05;16.40;99.90
36292;DHT22;22327;51.208;6.418;2023-08-07T07:48:05;16.40;99.90
36292;DHT22;22327;51.208;6.418;2023-08-07T07:51:08;16.50;99.90
36292;DHT22;22327;51.208;6.418;2023-08-07T07:54:08;16.60;99.90
36292;DHT22;22327;51.208;6.418;2023-08-07T07:57:09;16.60;99.90
36292;DHT22;22327;51.208;6.418;2023-08-07T08:00:10;16.60;99.90
36292;DHT22;22327;51.208;6.418;2023-08-07T08:03:11;16.70;99.90
36292;DHT22;22327;51.208;6.418;2023-08-07T08:06:12;16.70;99.90
36292;DHT22;22327;51.208;6.418;2023-08-07T08:09:13;16.90;99.90
36292;DHT22;22327;51.208;6.418;2023-08-07T08:12:14;17.00;99.90
36292;DHT22;22327;51.208;6.418;2023-08-07T08:15:14;17.10;99.90
36292;DHT22;22327;51.208;6.418;2023-08-07T08:18:15;17.20;99.90
36292;DHT22;22327;51.208;6.418;2023-08-07T08:21:15;17.40;99.90
36292;DHT22;22327;51.208;6.418;2023-08-07T08:24:16;17.60;99.90
36292;DHT22;22327;51.208;6.418;2023-08-07T08:27:16;17.90;99.90
36292;DHT22;22327;51.208;6.418;2023-08-07T08:30:18;18.00;99.90
36292;DHT22;22327;51.208;6.418;2023-08-07T08:33:18;18.40;99.90
36292;DHT22;22327;51.208;6.418;2023-08-07T08:36:19;18.60;99.90
36292;DHT22;22327;51.208;6.418;2023-08-07T08:39:19;18.60;99.90
36292;DHT22;22327;51.208;6.418;2023-08-07T08:42:20;18.50;99.90
36292;DHT22;22327;51.208;6.418;2023-08-07T08:45:21;18.50;99.90
36292;DHT22;22327;51.208;6.418;2023-08-07T08:48:22;18.60;99.90
36292;DHT22;22327;51.208;6.418;2023-08-07T08:51:25;18.70;99.90
36292;DHT22;22327;51.208;6.418;2023-08-07T08:54:26;18.80;99.90
36292;DHT22;22327;51.208;6.418;2023-08-07T08:57:28;19.10;99.90
36292;DHT22;22327;51.208;6.418;2023-08-07T09:00:29;19.50;99.90
36292;DHT22;22327;51.208;6.418;2023-08-07T09:03:30;19.90;98.80
36292;DHT22;22327;51.208;6.418;2023-08-07T09:06:32;19.90;99.00
36292;DHT22;22327;51.208;6.418;2023-08-07T09:09:33;19.90;99.00
36292;DHT22;22327;51.208;6.418;2023-08-07T09:12:34;19.90;98.70
36292;DHT22;22327;51.208;6.418;2023-08-07T09:15:38;20.00;99.30
36292;DHT22;22327;51.208;6.418;2023-08-07T09:18:40;20.60;99.80
36292;DHT22;22327;51.208;6.418;2023-08-07T09:21:40;21.60;98.20
36292;DHT22;22327;51.208;6.418;2023-08-07T09:24:41;23.00;97.70
36292;DHT22;22327;51.208;6.418;2023-08-07T09:27:42;24.70;96.80
36292;DHT22;22327;51.208;6.418;2023-08-07T09:30:42;25.60;91.20
36292;DHT22;22327;51.208;6.418;2023-08-07T09:33:46;26.00;88.90
36292;DHT22;22327;51.208;6.418;2023-08-07T09:36:47;26.20;84.60
36292;DHT22;22327;51.208;6.418;2023-08-07T09:39:48;26.20;85.00
36292;DHT22;22327;51.208;6.418;2023-08-07T09:42:53;26.80;84.40
36292;DHT22;22327;51.208;6.418;2023-08-07T09:46:04;27.60;77.40
36292;DHT22;22327;51.208;6.418;2023-08-07T09:49:05;28.10;74.50
36292;DHT22;22327;51.208;6.418;2023-08-07T09:52:07;28.50;71.50
36292;DHT22;22327;51.208;6.418;2023-08-07T09:55:07;28.70;70.80
36292;DHT22;22327;51.208;6.418;2023-08-07T09:58:08;28.70;67.40
36292;DHT22;22327;51.208;6.418;2023-08-07T10:01:12;28.40;63.20
36292;DHT22;22327;51.208;6.418;2023-08-07T10:04:12;27.60;61.90
36292;DHT22;22327;51.208;6.418;2023-08-07T10:07:15;26.60;66.30
36292;DHT22;22327;51.208;6.418;2023-08-07T10:10:17;26.10;70.20
36292;DHT22;22327;51.208;6.418;2023-08-07T10:13:18;25.60;68.60
36292;DHT22;22327;51.208;6.418;2023-08-07T10:16:19;25.40;74.50
36292;DHT22;22327;51.208;6.418;2023-08-07T10:19:19;25.00;72.80
36292;DHT22;22327;51.208;6.418;2023-08-07T10:22:20;24.60;70.00
36292;DHT22;22327;51.208;6.418;2023-08-07T10:25:25;24.10;67.40
36292;DHT22;22327;51.208;6.418;2023-08-07T10:28:28;23.60;71.60
36292;DHT22;22327;51.208;6.418;2023-08-07T10:31:29;23.20;71.10
36292;DHT22;22327;51.208;6.418;2023-08-07T10:34:33;22.90;70.80
36292;DHT22;22327;51.208;6.418;2023-08-07T10:37:41;22.80;70.30
36292;DHT22;22327;51.208;6.418;2023-08-07T10:41:02;22.60;67.60
36292;DHT22;22327;51.208;6.418;2023-08-07T10:44:03;22.40;69.90
36292;DHT22;22327;51.208;6.418;2023-08-07T10:47:03;22.20;75.00
36292;DHT22;22327;51.208;6.418;2023-08-07T10:50:04;22.20;72.50
36292;DHT22;22327;51.208;6.418;2023-08-07T10:53:05;22.20;74.00
36292;DHT22;22327;51.208;6.418;2023-08-07T10:56:09;22.10;75.70
36292;DHT22;22327;51.208;6.418;2023-08-07T10:59:10;22.10;77.20
36292;DHT22;22327;51.208;6.418;2023-08-07T11:02:12;22.30;78.80
36292;DHT22;22327;51.208;6.418;2023-08-07T11:05:13;22.40;80.50
36292;DHT22;22327;51.208;6.418;2023-08-07T11:08:13;22.50;76.30
36292;DHT22;22327;51.208;6.418;2023-08-07T11:11:14;22.50;75.70
36292;DHT22;22327;51.208;6.418;2023-08-07T11:14:19;22.50;79.10
36292;DHT22;22327;51.208;6.418;2023-08-07T11:17:19;22.50;73.50
36292;DHT22;22327;51.208;6.418;2023-08-07T11:20:20;22.40;74.20
36292;DHT22;22327;51.208;6.418;2023-08-07T11:23:27;22.40;77.00
36292;DHT22;22327;51.208;6.418;2023-08-07T11:26:28;22.50;72.90
36292;DHT22;22327;51.208;6.418;2023-08-07T11:29:29;22.50;71.70
36292;DHT22;22327;51.208;6.418;2023-08-07T11:32:31;22.50;74.40
36292;DHT22;22327;51.208;6.418;2023-08-07T11:35:31;22.50;76.00
36292;DHT22;22327;51.208;6.418;2023-08-07T11:38:34;22.80;76.10
36292;DHT22;22327;51.208;6.418;2023-08-07T11:41:35;22.80;73.00
36292;DHT22;22327;51.208;6.418;2023-08-07T11:44:36;22.80;69.60
36292;DHT22;22327;51.208;6.418;2023-08-07T11:47:36;22.90;66.00
36292;DHT22;22327;51.208;6.418;2023-08-07T11:50:37;22.90;70.40
36292;DHT22;22327;51.208;6.418;2023-08-07T11:53:40;23.00;70.30
36292;DHT22;22327;51.208;6.418;2023-08-07T11:56:41;23.00;67.20
36292;DHT22;22327;51.208;6.418;2023-08-07T11:59:47;23.20;67.10
36292;DHT22;22327;51.208;6.418;2023-08-07T12:02:48;23.30;65.30
36292;DHT22;22327;51.208;6.418;2023-08-07T12:05:48;23.40;65.20
36292;DHT22;22327;51.208;6.418;2023-08-07T12:08:54;23.30;64.10
36292;DHT22;22327;51.208;6.418;2023-08-07T12:11:58;23.20;67.30
36292;DHT22;22327;51.208;6.418;2023-08-07T12:14:59;23.10;64.50
36292;DHT22;22327;51.208;6.418;2023-08-07T12:18:01;23.10;64.60
36292;DHT22;22327;51.208;6.418;2023-08-07T12:21:04;23.00;66.40
36292;DHT22;22327;51.208;6.418;2023-08-07T12:24:07;22.90;66.10
36292;DHT22;22327;51.208;6.418;2023-08-07T12:27:08;22.90;62.40
36292;DHT22;22327;51.208;6.418;2023-08-07T12:30:08;22.80;62.10
36292;DHT22;22327;51.208;6.418;2023-08-07T12:33:09;22.80;62.70
36292;DHT22;22327;51.208;6.418;2023-08-07T12:36:10;22.70;60.70
36292;DHT22;22327;51.208;6.418;2023-08-07T12:39:10;22.60;62.40
36292;DHT22;22327;51.208;6.418;2023-08-07T12:42:11;22.70;62.20
36292;DHT22;22327;51.208;6.418;2023-08-07T12:45:11;22.60;63.50
36292;DHT22;22327;51.208;6.418;2023-08-07T12:48:12;22.70;63.90
36292;DHT22;22327;51.208;6.418;2023-08-07T12:51:13;22.80;61.40
36292;DHT22;22327;51.208;6.418;2023-08-07T12:54:13;23.00;63.00
36292;DHT22;22327;51.208;6.418;2023-08-07T12:57:14;23.20;62.80
36292;DHT22;22327;51.208;6.418;2023-08-07T13:00:15;23.40;60.90
36292;DHT22;22327;51.208;6.418;2023-08-07T13:03:16;23.40;60.80
36292;DHT22;22327;51.208;6.418;2023-08-07T13:06:17;23.40;59.50
36292;DHT22;22327;51.208;6.418;2023-08-07T13:09:17;23.30;59.80
36292;DHT22;22327;51.208;6.418;2023-08-07T13:12:18;23.20;61.80
36292;DHT22;22327;51.208;6.418;2023-08-07T13:15:18;23.30;61.50
36292;DHT22;22327;51.208;6.418;2023-08-07T13:18:19;23.30;62.70
36292;DHT22;22327;51.208;6.418;2023-08-07T13:21:20;23.40;61.40
36292;DHT22;22327;51.208;6.418;2023-08-07T13:24:20;23.60;62.80
36292;DHT22;22327;51.208;6.418;2023-08-07T13:27:21;23.80;60.90
36292;DHT22;22327;51.208;6.418;2023-08-07T13:30:21;24.10;59.40
36292;DHT22;22327;51.208;6.418;2023-08-07T13:33:22;24.10;59.90
36292;DHT22;22327;51.208;6.418;2023-08-07T13:36:22;24.10;59.60
36292;DHT22;22327;51.208;6.418;2023-08-07T13:39:23;24.00;59.50
36292;DHT22;22327;51.208;6.418;2023-08-07T13:42:24;23.90;59.60
36292;DHT22;22327;51.208;6.418;2023-08-07T13:45:26;23.80;59.60
36292;DHT22;22327;51.208;6.418;2023-08-07T13:48:26;23.70;60.80
36292;DHT22;22327;51.208;6.418;2023-08-07T13:51:28;23.60;62.50
36292;DHT22;22327;51.208;6.418;2023-08-07T13:54:28;23.50;62.80
36292;DHT22;22327;51.208;6.418;2023-08-07T13:57:29;23.30;63.80
36292;DHT22;22327;51.208;6.418;2023-08-07T14:00:30;23.10;65.60
36292;DHT22;22327;51.208;6.418;2023-08-07T14:03:31;23.00;65.10
36292;DHT22;22327;51.208;6.418;2023-08-07T14:06:31;22.90;65.70
36292;DHT22;22327;51.208;6.418;2023-08-07T14:09:32;23.00;66.70
36292;DHT22;22327;51.208;6.418;2023-08-07T14:12:32;23.20;66.90
36292;DHT22;22327;51.208;6.418;2023-08-07T14:15:33;23.30;66.20
36292;DHT22;22327;51.208;6.418;2023-08-07T14:18:34;23.40;63.70
36292;DHT22;22327;51.208;6.418;2023-08-07T14:21:34;23.40;64.60
36292;DHT22;22327;51.208;6.418;2023-08-07T14:24:35;23.50;65.30
36292;DHT22;22327;51.208;6.418;2023-08-07T14:27:35;23.50;65.70
36292;DHT22;22327;51.208;6.418;2023-08-07T14:30:36;23.40;66.90
36292;DHT22;22327;51.208;6.418;2023-08-07T14:33:37;23.40;67.20
36292;DHT22;22327;51.208;6.418;2023-08-07T14:36:38;23.40;65.00
36292;DHT22;22327;51.208;6.418;2023-08-07T14:39:38;23.20;67.00
36292;DHT22;22327;51.208;6.418;2023-08-07T14:42:39;23.20;66.90
36292;DHT22;22327;51.208;6.418;2023-08-07T14:45:39;23.30;66.70
36292;DHT22;22327;51.208;6.418;2023-08-07T14:48:40;23.40;68.50
36292;DHT22;22327;51.208;6.418;2023-08-07T14:51:41;23.20;70.10
36292;DHT22;22327;51.208;6.418;2023-08-07T14:54:42;23.00;72.50
36292;DHT22;22327;51.208;6.418;2023-08-07T14:57:42;22.80;74.80
36292;DHT22;22327;51.208;6.418;2023-08-07T15:00:43;22.80;75.40
36292;DHT22;22327;51.208;6.418;2023-08-07T15:03:44;22.80;73.00
36292;DHT22;22327;51.208;6.418;2023-08-07T15:06:44;22.80;72.60
36292;DHT22;22327;51.208;6.418;2023-08-07T15:09:48;22.60;73.40
36292;DHT22;22327;51.208;6.418;2023-08-07T15:12:50;22.50;73.50
36292;DHT22;22327;51.208;6.418;2023-08-07T15:15:51;22.50;74.70
36292;DHT22;22327;51.208;6.418;2023-08-07T15:18:51;22.50;74.70
36292;DHT22;22327;51.208;6.418;2023-08-07T15:21:52;22.60;74.30
36292;DHT22;22327;51.208;6.418;2023-08-07T15:24:52;22.70;73.80
36292;DHT22;22327;51.208;6.418;2023-08-07T15:27:53;22.90;74.20
36292;DHT22;22327;51.208;6.418;2023-08-07T15:30:55;23.00;72.90
36292;DHT22;22327;51.208;6.418;2023-08-07T15:33:55;23.00;72.00
36292;DHT22;22327;51.208;6.418;2023-08-07T15:36:57;22.90;68.80
36292;DHT22;22327;51.208;6.418;2023-08-07T15:39:58;23.00;69.20
36292;DHT22;22327;51.208;6.418;2023-08-07T15:42:58;23.10;69.20
36292;DHT22;22327;51.208;6.418;2023-08-07T15:45:59;23.30;69.40
36292;DHT22;22327;51.208;6.418;2023-08-07T15:48:59;23.40;68.30
36292;DHT22;22327;51.208;6.418;2023-08-07T15:52:00;23.60;68.80
36292;DHT22;22327;51.208;6.418;2023-08-07T15:55:00;23.70;66.80
36292;DHT22;22327;51.208;6.418;2023-08-07T15:58:05;23.80;68.70
36292;DHT22;22327;51.208;6.418;2023-08-07T16:01:06;23.90;69.70
36292;DHT22;22327;51.208;6.418;2023-08-07T16:04:08;23.90;69.10
36292;DHT22;22327;51.208;6.418;2023-08-07T16:07:09;23.80;69.00
36292;DHT22;22327;51.208;6.418;2023-08-07T16:10:09;23.60;70.20
36292;DHT22;22327;51.208;6.418;2023-08-07T16:13:10;23.50;71.10
36292;DHT22;22327;51.208;6.418;2023-08-07T16:16:10;23.30;70.90
36292;DHT22;22327;51.208;6.418;2023-08-07T16:19:11;23.00;71.50
36292;DHT22;22327;51.208;6.418;2023-08-07T16:22:11;22.90;72.30
36292;DHT22;22327;51.208;6.418;2023-08-07T16:25:12;22.90;73.10
36292;DHT22;22327;51.208;6.418;2023-08-07T16:28:13;22.90;72.30
36292;DHT22;22327;51.208;6.418;2023-08-07T16:31:14;23.10;72.50
36292;DHT22;22327;51.208;6.418;2023-08-07T16:34:15;23.20;71.10
36292;DHT22;22327;51.208;6.418;2023-08-07T16:37:15;23.10;71.00
36292;DHT22;22327;51.208;6.418;2023-08-07T16:40:17;23.10;71.60
36292;DHT22;22327;51.208;6.418;2023-08-07T16:43:18;23.00;70.70
36292;DHT22;22327;51.208;6.418;2023-08-07T16:46:18;22.90;71.30
36292;DHT22;22327;51.208;6.418;2023-08-07T16:49:20;22.80;71.20
36292;DHT22;22327;51.208;6.418;2023-08-07T16:52:21;22.70;71.70
36292;DHT22;22327;51.208;6.418;2023-08-07T16:55:21;22.70;71.70
36292;DHT22;22327;51.208;6.418;2023-08-07T16:58:22;22.60;70.20
36292;DHT22;22327;51.208;6.418;2023-08-07T17:01:23;22.50;69.90
36292;DHT22;22327;51.208;6.418;2023-08-07T17:04:23;22.50;70.50
36292;DHT22;22327;51.208;6.418;2023-08-07T17:07:24;22.50;70.00
36292;DHT22;22327;51.208;6.418;2023-08-07T17:10:24;22.50;71.00
36292;DHT22;22327;51.208;6.418;2023-08-07T17:13:25;22.50;70.70
36292;DHT22;22327;51.208;6.418;2023-08-07T17:16:26;22.40;71.60
36292;DHT22;22327;51.208;6.418;2023-08-07T17:19:26;22.40;72.80
36292;DHT22;22327;51.208;6.418;2023-08-07T17:22:27;22.50;73.50
36292;DHT22;22327;51.208;6.418;2023-08-07T17:25:28;22.30;73.70
36292;DHT22;22327;51.208;6.418;2023-08-07T17:28:29;22.30;74.60
36292;DHT22;22327;51.208;6.418;2023-08-07T17:31:30;22.30;75.50
36292;DHT22;22327;51.208;6.418;2023-08-07T17:34:30;22.10;75.10
36292;DHT22;22327;51.208;6.418;2023-08-07T17:37:31;22.00;75.20
36292;DHT22;22327;51.208;6.418;2023-08-07T17:40:31;22.00;75.20
36292;DHT22;22327;51.208;6.418;2023-08-07T17:43:32;22.20;75.00
36292;DHT22;22327;51.208;6.418;2023-08-07T17:46:32;22.20;74.60
36292;DHT22;22327;51.208;6.418;2023-08-07T17:49:33;22.20;74.90
36292;DHT22;22327;51.208;6.418;2023-08-07T17:52:40;22.10;74.60
36292;DHT22;22327;51.208;6.418;2023-08-07T17:55:40;22.00;75.10
36292;DHT22;22327;51.208;6.418;2023-08-07T17:58:41;21.90;75.70
36292;DHT22;22327;51.208;6.418;2023-08-07T18:01:41;21.90;76.50
36292;DHT22;22327;51.208;6.418;2023-08-07T18:04:42;21.70;77.20
36292;DHT22;22327;51.208;6.418;2023-08-07T18:07:42;21.70;77.20
36292;DHT22;22327;51.208;6.418;2023-08-07T18:10:43;21.60;77.30
36292;DHT22;22327;51.208;6.418;2023-08-07T18:13:44;21.60;77.50
36292;DHT22;22327;51.208;6.418;2023-08-07T18:16:44;21.50;78.30
36292;DHT22;22327;51.208;6.418;2023-08-07T18:19:45;21.50;78.80
36292;DHT22;22327;51.208;6.418;2023-08-07T18:22:45;21.30;78.60
36292;DHT22;22327;51.208;6.418;2023-08-07T18:25:46;21.30;78.90
36292;DHT22;22327;51.208;6.418;2023-08-07T18:28:46;21.20;79.50
36292;DHT22;22327;51.208;6.418;2023-08-07T18:31:48;21.00;79.50
36292;DHT22;22327;51.208;6.418;2023-08-07T18:34:49;20.90;80.00
36292;DHT22;22327;51.208;6.418;2023-08-07T18:37:49;20.70;80.70
36292;DHT22;22327;51.208;6.418;2023-08-07T18:40:50;20.60;81.70
36292;DHT22;22327;51.208;6.418;2023-08-07T18:43:50;20.50;82.40
36292;DHT22;22327;51.208;6.418;2023-08-07T18:46:51;20.40;83.40
36292;DHT22;22327;51.208;6.418;2023-08-07T18:49:51;20.30;83.90
36292;DHT22;22327;51.208;6.418;2023-08-07T18:52:52;20.20;84.80
36292;DHT22;22327;51.208;6.418;2023-08-07T18:55:53;20.10;85.20
36292;DHT22;22327;51.208;6.418;2023-08-07T18:58:54;20.20;85.80
36292;DHT22;22327;51.208;6.418;2023-08-07T19:01:54;20.10;86.10
36292;DHT22;22327;51.208;6.418;2023-08-07T19:04:55;20.10;86.30